KBMT

Beaumont Municipal Airport

Beaumont, Texas, USA
METAR KBMT 151915Z AUTO 01007KT 10SM CLR 12/00 A3027 RMK AO2 T01160002
Observed Flight Rules
Dec-15 @ 19:15 UTC (16 minutes ago) Visual Flight Rules
Wind Visibility Clouds
10° at 7 knots 10 miles
  • Clear skies
Temperatures Readings
Current 12°C / 54°F
Dewpoint 0°C / 32°F
Humidity 44%
Altimeter 30.27" Hg
Pressure 1025 hPa
Elevation 10
METAR KBMT 151915Z AUTO 01007KT 10SM CLR 12/00 A3027 RMK AO2 T01160002
Observed Flight Rules
Dec-15 @ 19:15 UTC
(16 minutes ago)
VFR
Wind Visibility
10° at 7 knots 10 miles
Clouds
  • Clear skies
Temperature Dewpoint
12°C / 54°F 0°C / 32°F
Humidity Altimeter Pressure
44% 30.27" Hg 1025 hPa